sensor_id;sensor_type;location;lat;lon;timestamp;P1;durP1;ratioP1;P2;durP2;ratioP2
76409;SDS011;65238;42.662;23.280;2023-09-19T00:01:28;8.52;;;5.60;;
76409;SDS011;65238;42.662;23.280;2023-09-19T00:03:55;8.57;;;5.97;;
76409;SDS011;65238;42.662;23.280;2023-09-19T00:06:22;7.13;;;5.93;;
76409;SDS011;65238;42.662;23.280;2023-09-19T00:08:51;8.30;;;5.22;;
76409;SDS011;65238;42.662;23.280;2023-09-19T00:11:17;10.23;;;5.68;;
76409;SDS011;65238;42.662;23.280;2023-09-19T00:13:42;8.95;;;5.63;;
76409;SDS011;65238;42.662;23.280;2023-09-19T00:16:11;11.93;;;6.22;;
76409;SDS011;65238;42.662;23.280;2023-09-19T00:18:37;5.88;;;5.28;;
76409;SDS011;65238;42.662;23.280;2023-09-19T00:21:02;8.32;;;5.55;;
76409;SDS011;65238;42.662;23.280;2023-09-19T00:23:30;8.30;;;6.15;;
76409;SDS011;65238;42.662;23.280;2023-09-19T00:25:59;9.25;;;5.78;;
76409;SDS011;65238;42.662;23.280;2023-09-19T00:28:26;7.32;;;5.53;;
76409;SDS011;65238;42.662;23.280;2023-09-19T00:30:52;8.68;;;5.13;;
76409;SDS011;65238;42.662;23.280;2023-09-19T00:33:20;7.45;;;5.60;;
76409;SDS011;65238;42.662;23.280;2023-09-19T00:35:52;7.82;;;5.85;;
76409;SDS011;65238;42.662;23.280;2023-09-19T00:38:19;8.77;;;5.68;;
76409;SDS011;65238;42.662;23.280;2023-09-19T00:40:47;9.45;;;5.57;;
76409;SDS011;65238;42.662;23.280;2023-09-19T00:43:14;8.40;;;5.50;;
76409;SDS011;65238;42.662;23.280;2023-09-19T00:45:42;7.35;;;5.47;;
76409;SDS011;65238;42.662;23.280;2023-09-19T00:48:13;8.80;;;5.80;;
76409;SDS011;65238;42.662;23.280;2023-09-19T00:50:39;10.57;;;5.90;;
76409;SDS011;65238;42.662;23.280;2023-09-19T00:53:08;6.47;;;5.18;;
76409;SDS011;65238;42.662;23.280;2023-09-19T00:55:34;8.55;;;5.63;;
76409;SDS011;65238;42.662;23.280;2023-09-19T00:58:02;6.47;;;5.25;;
76409;SDS011;65238;42.662;23.280;2023-09-19T01:00:28;7.38;;;4.90;;
76409;SDS011;65238;42.662;23.280;2023-09-19T01:02:54;10.52;;;5.70;;
76409;SDS011;65238;42.662;23.280;2023-09-19T01:05:19;10.02;;;5.93;;
76409;SDS011;65238;42.662;23.280;2023-09-19T01:07:45;7.90;;;6.05;;
76409;SDS011;65238;42.662;23.280;2023-09-19T01:10:14;7.63;;;5.22;;
76409;SDS011;65238;42.662;23.280;2023-09-19T01:12:48;10.05;;;5.93;;
76409;SDS011;65238;42.662;23.280;2023-09-19T01:21:08;9.23;;;5.87;;
76409;SDS011;65238;42.662;23.280;2023-09-19T01:29:39;11.55;;;5.65;;
76409;SDS011;65238;42.662;23.280;2023-09-19T01:32:09;11.55;;;6.03;;
76409;SDS011;65238;42.662;23.280;2023-09-19T01:34:48;8.23;;;5.53;;
76409;SDS011;65238;42.662;23.280;2023-09-19T01:37:18;9.88;;;5.32;;
76409;SDS011;65238;42.662;23.280;2023-09-19T01:39:46;9.35;;;5.78;;
76409;SDS011;65238;42.662;23.280;2023-09-19T01:45:04;7.10;;;5.53;;
76409;SDS011;65238;42.662;23.280;2023-09-19T01:47:33;8.52;;;6.40;;
76409;SDS011;65238;42.662;23.280;2023-09-19T01:52:54;8.77;;;6.00;;
76409;SDS011;65238;42.662;23.280;2023-09-19T01:55:23;8.10;;;6.00;;
76409;SDS011;65238;42.662;23.280;2023-09-19T01:57:54;9.30;;;6.32;;
76409;SDS011;65238;42.662;23.280;2023-09-19T02:00:26;11.65;;;6.80;;
76409;SDS011;65238;42.662;23.280;2023-09-19T02:02:52;11.90;;;6.60;;
76409;SDS011;65238;42.662;23.280;2023-09-19T02:05:24;8.60;;;6.43;;
76409;SDS011;65238;42.662;23.280;2023-09-19T02:07:50;9.95;;;6.30;;
76409;SDS011;65238;42.662;23.280;2023-09-19T02:10:16;10.57;;;6.25;;
76409;SDS011;65238;42.662;23.280;2023-09-19T02:12:42;9.63;;;6.13;;
76409;SDS011;65238;42.662;23.280;2023-09-19T02:15:07;10.77;;;5.93;;
76409;SDS011;65238;42.662;23.280;2023-09-19T02:17:34;11.63;;;6.18;;
76409;SDS011;65238;42.662;23.280;2023-09-19T02:19:59;12.02;;;6.35;;
76409;SDS011;65238;42.662;23.280;2023-09-19T02:22:25;12.57;;;6.45;;
76409;SDS011;65238;42.662;23.280;2023-09-19T02:24:51;10.63;;;6.65;;
76409;SDS011;65238;42.662;23.280;2023-09-19T02:27:17;8.48;;;6.05;;
76409;SDS011;65238;42.662;23.280;2023-09-19T02:29:43;10.20;;;6.15;;
76409;SDS011;65238;42.662;23.280;2023-09-19T02:32:09;8.80;;;6.35;;
76409;SDS011;65238;42.662;23.280;2023-09-19T02:34:37;8.80;;;6.18;;
76409;SDS011;65238;42.662;23.280;2023-09-19T02:37:04;10.07;;;6.57;;
76409;SDS011;65238;42.662;23.280;2023-09-19T02:39:30;8.73;;;6.22;;
76409;SDS011;65238;42.662;23.280;2023-09-19T02:41:56;12.20;;;6.13;;
76409;SDS011;65238;42.662;23.280;2023-09-19T02:44:22;8.25;;;5.60;;
76409;SDS011;65238;42.662;23.280;2023-09-19T02:46:48;9.77;;;5.50;;
76409;SDS011;65238;42.662;23.280;2023-09-19T02:49:14;9.02;;;5.93;;
76409;SDS011;65238;42.662;23.280;2023-09-19T02:51:40;12.40;;;5.95;;
76409;SDS011;65238;42.662;23.280;2023-09-19T02:54:05;9.70;;;5.55;;
76409;SDS011;65238;42.662;23.280;2023-09-19T02:56:31;10.75;;;5.82;;
76409;SDS011;65238;42.662;23.280;2023-09-19T02:58:57;9.63;;;5.90;;
76409;SDS011;65238;42.662;23.280;2023-09-19T03:01:23;10.23;;;5.65;;
76409;SDS011;65238;42.662;23.280;2023-09-19T03:03:48;11.45;;;6.30;;
76409;SDS011;65238;42.662;23.280;2023-09-19T03:06:14;10.85;;;6.95;;
76409;SDS011;65238;42.662;23.280;2023-09-19T03:08:39;6.90;;;5.63;;
76409;SDS011;65238;42.662;23.280;2023-09-19T03:11:07;9.07;;;6.15;;
76409;SDS011;65238;42.662;23.280;2023-09-19T03:13:36;8.48;;;6.72;;
76409;SDS011;65238;42.662;23.280;2023-09-19T03:16:03;13.35;;;6.78;;
76409;SDS011;65238;42.662;23.280;2023-09-19T03:18:31;8.90;;;6.40;;
76409;SDS011;65238;42.662;23.280;2023-09-19T03:20:57;11.63;;;6.20;;
76409;SDS011;65238;42.662;23.280;2023-09-19T03:23:24;10.40;;;6.32;;
76409;SDS011;65238;42.662;23.280;2023-09-19T03:25:51;12.77;;;6.43;;
76409;SDS011;65238;42.662;23.280;2023-09-19T03:28:17;11.00;;;7.03;;
76409;SDS011;65238;42.662;23.280;2023-09-19T03:30:43;10.60;;;6.60;;
76409;SDS011;65238;42.662;23.280;2023-09-19T03:33:09;9.85;;;6.10;;
76409;SDS011;65238;42.662;23.280;2023-09-19T03:35:37;9.57;;;6.80;;
76409;SDS011;65238;42.662;23.280;2023-09-19T03:38:04;10.30;;;6.80;;
76409;SDS011;65238;42.662;23.280;2023-09-19T03:40:30;8.50;;;6.63;;
76409;SDS011;65238;42.662;23.280;2023-09-19T03:42:56;12.18;;;7.97;;
76409;SDS011;65238;42.662;23.280;2023-09-19T03:45:21;8.15;;;6.10;;
76409;SDS011;65238;42.662;23.280;2023-09-19T03:47:46;13.77;;;6.65;;
76409;SDS011;65238;42.662;23.280;2023-09-19T03:50:12;13.48;;;6.97;;
76409;SDS011;65238;42.662;23.280;2023-09-19T03:52:43;9.45;;;6.35;;
76409;SDS011;65238;42.662;23.280;2023-09-19T03:55:08;8.43;;;6.05;;
76409;SDS011;65238;42.662;23.280;2023-09-19T03:57:34;10.43;;;6.40;;
76409;SDS011;65238;42.662;23.280;2023-09-19T04:00:00;11.25;;;6.80;;
76409;SDS011;65238;42.662;23.280;2023-09-19T04:02:26;10.48;;;6.88;;
76409;SDS011;65238;42.662;23.280;2023-09-19T04:04:57;10.77;;;7.63;;
76409;SDS011;65238;42.662;23.280;2023-09-19T04:07:23;13.50;;;7.25;;
76409;SDS011;65238;42.662;23.280;2023-09-19T04:09:50;9.80;;;6.88;;
76409;SDS011;65238;42.662;23.280;2023-09-19T04:12:18;13.52;;;7.15;;
76409;SDS011;65238;42.662;23.280;2023-09-19T04:14:44;12.27;;;7.75;;
76409;SDS011;65238;42.662;23.280;2023-09-19T04:17:09;10.77;;;7.28;;
76409;SDS011;65238;42.662;23.280;2023-09-19T04:19:35;16.77;;;7.57;;
76409;SDS011;65238;42.662;23.280;2023-09-19T04:22:01;11.63;;;6.72;;
76409;SDS011;65238;42.662;23.280;2023-09-19T04:24:27;11.77;;;7.03;;
76409;SDS011;65238;42.662;23.280;2023-09-19T04:26:52;15.60;;;7.55;;
76409;SDS011;65238;42.662;23.280;2023-09-19T04:29:17;12.23;;;7.68;;
76409;SDS011;65238;42.662;23.280;2023-09-19T04:31:44;12.25;;;7.65;;
76409;SDS011;65238;42.662;23.280;2023-09-19T04:34:11;12.77;;;8.07;;
76409;SDS011;65238;42.662;23.280;2023-09-19T04:36:42;17.30;;;9.00;;
76409;SDS011;65238;42.662;23.280;2023-09-19T04:39:08;15.05;;;7.80;;
76409;SDS011;65238;42.662;23.280;2023-09-19T04:41:35;12.50;;;7.57;;
76409;SDS011;65238;42.662;23.280;2023-09-19T04:44:03;15.77;;;10.15;;
76409;SDS011;65238;42.662;23.280;2023-09-19T04:46:30;17.88;;;10.35;;
76409;SDS011;65238;42.662;23.280;2023-09-19T04:48:55;23.92;;;12.13;;
76409;SDS011;65238;42.662;23.280;2023-09-19T04:51:20;13.60;;;9.27;;
76409;SDS011;65238;42.662;23.280;2023-09-19T04:53:46;13.63;;;7.70;;
76409;SDS011;65238;42.662;23.280;2023-09-19T04:56:13;10.23;;;7.50;;
76409;SDS011;65238;42.662;23.280;2023-09-19T04:58:38;12.35;;;7.90;;
76409;SDS011;65238;42.662;23.280;2023-09-19T05:01:03;12.07;;;8.38;;
76409;SDS011;65238;42.662;23.280;2023-09-19T05:03:29;17.98;;;8.15;;
76409;SDS011;65238;42.662;23.280;2023-09-19T05:05:54;19.25;;;7.45;;
76409;SDS011;65238;42.662;23.280;2023-09-19T05:08:20;18.05;;;8.82;;
76409;SDS011;65238;42.662;23.280;2023-09-19T05:10:47;11.88;;;7.60;;
76409;SDS011;65238;42.662;23.280;2023-09-19T05:13:12;11.57;;;7.30;;
76409;SDS011;65238;42.662;23.280;2023-09-19T05:15:38;12.10;;;8.13;;
76409;SDS011;65238;42.662;23.280;2023-09-19T05:18:04;14.10;;;7.93;;
76409;SDS011;65238;42.662;23.280;2023-09-19T05:20:31;12.07;;;6.90;;
76409;SDS011;65238;42.662;23.280;2023-09-19T05:23:04;10.25;;;6.88;;
76409;SDS011;65238;42.662;23.280;2023-09-19T05:25:33;14.20;;;8.05;;
76409;SDS011;65238;42.662;23.280;2023-09-19T05:28:02;14.10;;;7.45;;
76409;SDS011;65238;42.662;23.280;2023-09-19T05:30:29;12.93;;;8.13;;
76409;SDS011;65238;42.662;23.280;2023-09-19T05:32:55;11.70;;;7.45;;
76409;SDS011;65238;42.662;23.280;2023-09-19T05:35:21;13.35;;;7.55;;
76409;SDS011;65238;42.662;23.280;2023-09-19T05:37:47;15.10;;;6.93;;
76409;SDS011;65238;42.662;23.280;2023-09-19T05:40:16;13.63;;;7.32;;
76409;SDS011;65238;42.662;23.280;2023-09-19T05:42:45;13.43;;;7.97;;
76409;SDS011;65238;42.662;23.280;2023-09-19T05:45:11;12.75;;;7.72;;
76409;SDS011;65238;42.662;23.280;2023-09-19T05:47:38;16.23;;;7.53;;
76409;SDS011;65238;42.662;23.280;2023-09-19T05:50:08;13.57;;;6.53;;
76409;SDS011;65238;42.662;23.280;2023-09-19T05:52:35;11.88;;;7.05;;
76409;SDS011;65238;42.662;23.280;2023-09-19T05:55:02;9.25;;;6.47;;
76409;SDS011;65238;42.662;23.280;2023-09-19T05:57:32;10.07;;;6.57;;
76409;SDS011;65238;42.662;23.280;2023-09-19T05:59:58;13.68;;;6.93;;
76409;SDS011;65238;42.662;23.280;2023-09-19T06:02:23;11.85;;;6.90;;
76409;SDS011;65238;42.662;23.280;2023-09-19T06:04:50;11.45;;;6.55;;
76409;SDS011;65238;42.662;23.280;2023-09-19T06:07:18;9.95;;;6.93;;
76409;SDS011;65238;42.662;23.280;2023-09-19T06:09:43;9.88;;;7.50;;
76409;SDS011;65238;42.662;23.280;2023-09-19T06:12:08;11.65;;;6.40;;
76409;SDS011;65238;42.662;23.280;2023-09-19T06:14:34;13.77;;;6.80;;
76409;SDS011;65238;42.662;23.280;2023-09-19T06:16:59;16.08;;;7.15;;
76409;SDS011;65238;42.662;23.280;2023-09-19T06:19:25;11.77;;;6.75;;
76409;SDS011;65238;42.662;23.280;2023-09-19T06:21:52;12.40;;;6.43;;
76409;SDS011;65238;42.662;23.280;2023-09-19T06:24:19;12.95;;;6.72;;
76409;SDS011;65238;42.662;23.280;2023-09-19T06:26:44;10.70;;;6.47;;
76409;SDS011;65238;42.662;23.280;2023-09-19T06:29:10;12.57;;;7.25;;
76409;SDS011;65238;42.662;23.280;2023-09-19T06:31:35;13.45;;;6.25;;
76409;SDS011;65238;42.662;23.280;2023-09-19T06:34:01;10.43;;;6.60;;
76409;SDS011;65238;42.662;23.280;2023-09-19T06:36:29;9.77;;;6.57;;
76409;SDS011;65238;42.662;23.280;2023-09-19T06:38:55;15.13;;;6.88;;
76409;SDS011;65238;42.662;23.280;2023-09-19T06:41:20;9.63;;;5.97;;
76409;SDS011;65238;42.662;23.280;2023-09-19T06:43:49;14.85;;;6.97;;
76409;SDS011;65238;42.662;23.280;2023-09-19T06:46:17;14.00;;;7.05;;
76409;SDS011;65238;42.662;23.280;2023-09-19T06:48:43;10.93;;;6.50;;
76409;SDS011;65238;42.662;23.280;2023-09-19T06:51:09;10.30;;;7.10;;
76409;SDS011;65238;42.662;23.280;2023-09-19T06:53:35;14.15;;;6.70;;
76409;SDS011;65238;42.662;23.280;2023-09-19T06:56:01;11.55;;;6.35;;
76409;SDS011;65238;42.662;23.280;2023-09-19T06:58:27;11.75;;;6.40;;
76409;SDS011;65238;42.662;23.280;2023-09-19T07:00:52;11.73;;;6.78;;
76409;SDS011;65238;42.662;23.280;2023-09-19T07:03:19;11.23;;;6.40;;
76409;SDS011;65238;42.662;23.280;2023-09-19T07:05:47;13.13;;;6.10;;
76409;SDS011;65238;42.662;23.280;2023-09-19T07:08:16;8.63;;;6.40;;
76409;SDS011;65238;42.662;23.280;2023-09-19T07:10:41;11.43;;;5.90;;
76409;SDS011;65238;42.662;23.280;2023-09-19T07:13:13;13.43;;;5.82;;
76409;SDS011;65238;42.662;23.280;2023-09-19T07:15:41;9.60;;;6.13;;
76409;SDS011;65238;42.662;23.280;2023-09-19T07:18:11;9.82;;;5.40;;
76409;SDS011;65238;42.662;23.280;2023-09-19T07:20:37;11.07;;;6.30;;
76409;SDS011;65238;42.662;23.280;2023-09-19T07:23:03;9.10;;;6.30;;
76409;SDS011;65238;42.662;23.280;2023-09-19T07:25:28;7.40;;;5.47;;
76409;SDS011;65238;42.662;23.280;2023-09-19T07:27:57;8.50;;;5.57;;
76409;SDS011;65238;42.662;23.280;2023-09-19T07:30:25;9.53;;;5.17;;
76409;SDS011;65238;42.662;23.280;2023-09-19T07:32:53;16.63;;;6.53;;
76409;SDS011;65238;42.662;23.280;2023-09-19T07:35:19;10.93;;;5.95;;
76409;SDS011;65238;42.662;23.280;2023-09-19T07:37:47;12.90;;;6.28;;
76409;SDS011;65238;42.662;23.280;2023-09-19T07:40:14;8.35;;;5.90;;
76409;SDS011;65238;42.662;23.280;2023-09-19T07:42:40;10.73;;;6.15;;
76409;SDS011;65238;42.662;23.280;2023-09-19T07:45:06;11.48;;;6.40;;
76409;SDS011;65238;42.662;23.280;2023-09-19T07:47:32;10.73;;;6.82;;
76409;SDS011;65238;42.662;23.280;2023-09-19T07:49:59;12.48;;;6.45;;
76409;SDS011;65238;42.662;23.280;2023-09-19T07:52:27;11.05;;;6.45;;
76409;SDS011;65238;42.662;23.280;2023-09-19T07:54:52;15.13;;;6.63;;
76409;SDS011;65238;42.662;23.280;2023-09-19T07:57:18;12.80;;;6.35;;
76409;SDS011;65238;42.662;23.280;2023-09-19T07:59:45;10.88;;;5.80;;
76409;SDS011;65238;42.662;23.280;2023-09-19T08:02:12;9.43;;;6.28;;
76409;SDS011;65238;42.662;23.280;2023-09-19T08:04:44;12.20;;;5.88;;
76409;SDS011;65238;42.662;23.280;2023-09-19T08:07:14;11.02;;;5.90;;
76409;SDS011;65238;42.662;23.280;2023-09-19T08:09:40;9.15;;;6.28;;
76409;SDS011;65238;42.662;23.280;2023-09-19T08:12:06;15.75;;;7.18;;
76409;SDS011;65238;42.662;23.280;2023-09-19T08:14:37;15.23;;;7.05;;
76409;SDS011;65238;42.662;23.280;2023-09-19T08:17:03;9.73;;;6.38;;
76409;SDS011;65238;42.662;23.280;2023-09-19T08:19:30;10.10;;;6.43;;
76409;SDS011;65238;42.662;23.280;2023-09-19T08:21:57;10.98;;;6.03;;
76409;SDS011;65238;42.662;23.280;2023-09-19T08:24:27;8.50;;;6.07;;
76409;SDS011;65238;42.662;23.280;2023-09-19T08:26:53;17.65;;;7.03;;
76409;SDS011;65238;42.662;23.280;2023-09-19T08:29:20;10.10;;;5.90;;
76409;SDS011;65238;42.662;23.280;2023-09-19T08:31:45;21.10;;;6.50;;
76409;SDS011;65238;42.662;23.280;2023-09-19T08:34:12;9.40;;;6.03;;
76409;SDS011;65238;42.662;23.280;2023-09-19T08:36:38;16.35;;;7.13;;
76409;SDS011;65238;42.662;23.280;2023-09-19T08:39:04;10.50;;;6.65;;
76409;SDS011;65238;42.662;23.280;2023-09-19T08:41:29;13.90;;;6.32;;
76409;SDS011;65238;42.662;23.280;2023-09-19T08:43:58;14.60;;;6.85;;
76409;SDS011;65238;42.662;23.280;2023-09-19T08:46:26;11.77;;;6.80;;
76409;SDS011;65238;42.662;23.280;2023-09-19T08:49:01;14.10;;;6.22;;
76409;SDS011;65238;42.662;23.280;2023-09-19T08:51:42;13.02;;;7.53;;
76409;SDS011;65238;42.662;23.280;2023-09-19T08:54:21;10.02;;;5.97;;
76409;SDS011;65238;42.662;23.280;2023-09-19T08:56:51;10.20;;;5.88;;
76409;SDS011;65238;42.662;23.280;2023-09-19T08:59:20;14.90;;;6.50;;
76409;SDS011;65238;42.662;23.280;2023-09-19T09:01:49;14.77;;;9.10;;
76409;SDS011;65238;42.662;23.280;2023-09-19T09:04:21;13.10;;;6.82;;
76409;SDS011;65238;42.662;23.280;2023-09-19T09:06:47;11.40;;;6.40;;
76409;SDS011;65238;42.662;23.280;2023-09-19T09:09:18;10.50;;;7.22;;
76409;SDS011;65238;42.662;23.280;2023-09-19T09:11:43;10.80;;;6.35;;
76409;SDS011;65238;42.662;23.280;2023-09-19T09:14:09;9.75;;;6.13;;
76409;SDS011;65238;42.662;23.280;2023-09-19T09:16:34;12.85;;;6.50;;
76409;SDS011;65238;42.662;23.280;2023-09-19T09:18:59;12.50;;;6.63;;
76409;SDS011;65238;42.662;23.280;2023-09-19T09:21:27;11.43;;;6.63;;
76409;SDS011;65238;42.662;23.280;2023-09-19T09:23:53;10.48;;;6.60;;
76409;SDS011;65238;42.662;23.280;2023-09-19T09:29:15;11.60;;;5.93;;
76409;SDS011;65238;42.662;23.280;2023-09-19T09:31:40;11.20;;;6.43;;
76409;SDS011;65238;42.662;23.280;2023-09-19T09:34:07;11.38;;;6.32;;
76409;SDS011;65238;42.662;23.280;2023-09-19T09:39:01;13.02;;;5.90;;
76409;SDS011;65238;42.662;23.280;2023-09-19T09:41:40;10.43;;;6.05;;
76409;SDS011;65238;42.662;23.280;2023-09-19T09:44:13;10.88;;;6.53;;
76409;SDS011;65238;42.662;23.280;2023-09-19T09:46:43;9.38;;;6.10;;
76409;SDS011;65238;42.662;23.280;2023-09-19T09:49:24;13.75;;;5.97;;
76409;SDS011;65238;42.662;23.280;2023-09-19T09:54:33;10.88;;;6.10;;
76409;SDS011;65238;42.662;23.280;2023-09-19T09:57:09;11.45;;;5.90;;
76409;SDS011;65238;42.662;23.280;2023-09-19T10:02:16;10.75;;;6.05;;
76409;SDS011;65238;42.662;23.280;2023-09-19T10:04:52;12.68;;;6.20;;
76409;SDS011;65238;42.662;23.280;2023-09-19T10:07:35;12.30;;;6.85;;
76409;SDS011;65238;42.662;23.280;2023-09-19T10:10:03;8.38;;;5.80;;
76409;SDS011;65238;42.662;23.280;2023-09-19T10:12:44;10.88;;;6.28;;
76409;SDS011;65238;42.662;23.280;2023-09-19T10:15:11;8.10;;;6.10;;
76409;SDS011;65238;42.662;23.280;2023-09-19T10:17:40;9.63;;;5.70;;
76409;SDS011;65238;42.662;23.280;2023-09-19T10:20:08;10.43;;;6.90;;
76409;SDS011;65238;42.662;23.280;2023-09-19T10:22:47;12.32;;;6.68;;
76409;SDS011;65238;42.662;23.280;2023-09-19T10:25:29;14.90;;;7.32;;
76409;SDS011;65238;42.662;23.280;2023-09-19T10:27:56;11.43;;;8.40;;
76409;SDS011;65238;42.662;23.280;2023-09-19T10:30:25;14.00;;;7.03;;
76409;SDS011;65238;42.662;23.280;2023-09-19T10:32:55;13.32;;;6.45;;
76409;SDS011;65238;42.662;23.280;2023-09-19T10:35:26;12.30;;;6.65;;
76409;SDS011;65238;42.662;23.280;2023-09-19T10:37:53;11.60;;;6.82;;
76409;SDS011;65238;42.662;23.280;2023-09-19T10:40:20;14.50;;;6.68;;
76409;SDS011;65238;42.662;23.280;2023-09-19T10:42:46;11.50;;;6.47;;
76409;SDS011;65238;42.662;23.280;2023-09-19T10:45:13;9.10;;;5.93;;
76409;SDS011;65238;42.662;23.280;2023-09-19T10:47:40;13.90;;;6.43;;
76409;SDS011;65238;42.662;23.280;2023-09-19T10:50:06;8.77;;;6.32;;
76409;SDS011;65238;42.662;23.280;2023-09-19T10:52:38;15.93;;;6.88;;
76409;SDS011;65238;42.662;23.280;2023-09-19T10:55:09;10.75;;;6.63;;
76409;SDS011;65238;42.662;23.280;2023-09-19T10:57:44;11.60;;;6.00;;
76409;SDS011;65238;42.662;23.280;2023-09-19T11:00:17;7.63;;;5.70;;
76409;SDS011;65238;42.662;23.280;2023-09-19T11:03:16;9.80;;;6.03;;
76409;SDS011;65238;42.662;23.280;2023-09-19T11:05:43;12.98;;;6.63;;
76409;SDS011;65238;42.662;23.280;2023-09-19T11:08:26;14.20;;;5.90;;
76409;SDS011;65238;42.662;23.280;2023-09-19T11:10:52;20.00;;;6.47;;
76409;SDS011;65238;42.662;23.280;2023-09-19T11:13:27;12.00;;;6.40;;
76409;SDS011;65238;42.662;23.280;2023-09-19T11:26:49;12.05;;;6.20;;
76409;SDS011;65238;42.662;23.280;2023-09-19T11:29:29;10.98;;;6.07;;
76409;SDS011;65238;42.662;23.280;2023-09-19T11:31:56;11.18;;;5.50;;
76409;SDS011;65238;42.662;23.280;2023-09-19T11:39:38;7.35;;;5.60;;
76409;SDS011;65238;42.662;23.280;2023-09-19T11:45:07;12.23;;;5.65;;
76409;SDS011;65238;42.662;23.280;2023-09-19T11:47:32;9.23;;;5.78;;
76409;SDS011;65238;42.662;23.280;2023-09-19T11:50:03;16.38;;;11.32;;
76409;SDS011;65238;42.662;23.280;2023-09-19T11:52:31;11.85;;;7.18;;
76409;SDS011;65238;42.662;23.280;2023-09-19T11:55:04;17.63;;;6.03;;
76409;SDS011;65238;42.662;23.280;2023-09-19T11:57:30;9.80;;;5.53;;
76409;SDS011;65238;42.662;23.280;2023-09-19T11:59:56;10.52;;;6.40;;
76409;SDS011;65238;42.662;23.280;2023-09-19T12:02:38;14.85;;;6.22;;
76409;SDS011;65238;42.662;23.280;2023-09-19T12:05:07;13.00;;;5.75;;
76409;SDS011;65238;42.662;23.280;2023-09-19T12:07:41;11.10;;;5.22;;
76409;SDS011;65238;42.662;23.280;2023-09-19T12:10:12;10.48;;;5.65;;
76409;SDS011;65238;42.662;23.280;2023-09-19T12:12:39;11.57;;;5.72;;
76409;SDS011;65238;42.662;23.280;2023-09-19T12:15:06;10.02;;;5.47;;
76409;SDS011;65238;42.662;23.280;2023-09-19T12:17:36;9.65;;;5.57;;
76409;SDS011;65238;42.662;23.280;2023-09-19T12:20:03;11.43;;;5.88;;
76409;SDS011;65238;42.662;23.280;2023-09-19T12:22:41;9.18;;;5.80;;
76409;SDS011;65238;42.662;23.280;2023-09-19T12:25:09;7.53;;;5.93;;
76409;SDS011;65238;42.662;23.280;2023-09-19T12:27:43;7.55;;;5.28;;
76409;SDS011;65238;42.662;23.280;2023-09-19T12:30:09;13.73;;;6.15;;
76409;SDS011;65238;42.662;23.280;2023-09-19T12:32:39;9.85;;;5.90;;
76409;SDS011;65238;42.662;23.280;2023-09-19T12:35:06;12.55;;;6.25;;
76409;SDS011;65238;42.662;23.280;2023-09-19T12:37:42;8.70;;;5.57;;
76409;SDS011;65238;42.662;23.280;2023-09-19T12:40:13;9.90;;;6.07;;
76409;SDS011;65238;42.662;23.280;2023-09-19T12:42:48;7.95;;;5.65;;
76409;SDS011;65238;42.662;23.280;2023-09-19T12:45:14;10.93;;;5.10;;
76409;SDS011;65238;42.662;23.280;2023-09-19T12:51:04;9.57;;;5.68;;
76409;SDS011;65238;42.662;23.280;2023-09-19T12:53:45;9.02;;;5.35;;
76409;SDS011;65238;42.662;23.280;2023-09-19T12:56:16;8.50;;;5.05;;
76409;SDS011;65238;42.662;23.280;2023-09-19T13:01:21;15.73;;;5.53;;
76409;SDS011;65238;42.662;23.280;2023-09-19T13:07:00;6.88;;;5.47;;
76409;SDS011;65238;42.662;23.280;2023-09-19T13:09:30;9.35;;;5.32;;
76409;SDS011;65238;42.662;23.280;2023-09-19T13:12:03;8.57;;;5.20;;
76409;SDS011;65238;42.662;23.280;2023-09-19T13:14:29;9.13;;;5.05;;
76409;SDS011;65238;42.662;23.280;2023-09-19T13:17:08;11.35;;;5.32;;
76409;SDS011;65238;42.662;23.280;2023-09-19T13:19:49;7.97;;;4.88;;
76409;SDS011;65238;42.662;23.280;2023-09-19T13:25:18;7.80;;;4.72;;
76409;SDS011;65238;42.662;23.280;2023-09-19T13:27:45;6.65;;;4.65;;
76409;SDS011;65238;42.662;23.280;2023-09-19T13:30:19;8.00;;;5.28;;
76409;SDS011;65238;42.662;23.280;2023-09-19T13:32:46;8.35;;;5.35;;
76409;SDS011;65238;42.662;23.280;2023-09-19T13:35:15;6.70;;;4.47;;
76409;SDS011;65238;42.662;23.280;2023-09-19T13:37:41;13.50;;;5.55;;
76409;SDS011;65238;42.662;23.280;2023-09-19T13:40:08;10.65;;;5.28;;
76409;SDS011;65238;42.662;23.280;2023-09-19T13:42:34;9.02;;;5.40;;
76409;SDS011;65238;42.662;23.280;2023-09-19T13:45:01;8.80;;;5.38;;
76409;SDS011;65238;42.662;23.280;2023-09-19T13:47:33;18.58;;;5.68;;
76409;SDS011;65238;42.662;23.280;2023-09-19T13:50:02;5.40;;;4.88;;
76409;SDS011;65238;42.662;23.280;2023-09-19T13:52:29;6.97;;;4.57;;
76409;SDS011;65238;42.662;23.280;2023-09-19T13:54:58;8.02;;;4.90;;
76409;SDS011;65238;42.662;23.280;2023-09-19T13:57:27;7.30;;;4.90;;
76409;SDS011;65238;42.662;23.280;2023-09-19T13:59:54;6.97;;;4.57;;
76409;SDS011;65238;42.662;23.280;2023-09-19T14:02:20;6.57;;;5.15;;
76409;SDS011;65238;42.662;23.280;2023-09-19T14:04:48;7.45;;;4.57;;
76409;SDS011;65238;42.662;23.280;2023-09-19T14:07:22;9.90;;;5.40;;
76409;SDS011;65238;42.662;23.280;2023-09-19T14:09:48;8.07;;;4.70;;
76409;SDS011;65238;42.662;23.280;2023-09-19T14:12:15;12.23;;;5.53;;
76409;SDS011;65238;42.662;23.280;2023-09-19T14:14:40;9.05;;;4.93;;
76409;SDS011;65238;42.662;23.280;2023-09-19T14:17:07;6.97;;;5.07;;
76409;SDS011;65238;42.662;23.280;2023-09-19T14:19:32;7.28;;;5.40;;
76409;SDS011;65238;42.662;23.280;2023-09-19T14:21:58;10.15;;;5.30;;
76409;SDS011;65238;42.662;23.280;2023-09-19T14:24:34;4.90;;;4.30;;
76409;SDS011;65238;42.662;23.280;2023-09-19T14:29:56;7.57;;;4.50;;
76409;SDS011;65238;42.662;23.280;2023-09-19T14:32:23;10.85;;;7.38;;
76409;SDS011;65238;42.662;23.280;2023-09-19T14:34:48;12.35;;;9.30;;
76409;SDS011;65238;42.662;23.280;2023-09-19T14:37:14;10.20;;;6.63;;
76409;SDS011;65238;42.662;23.280;2023-09-19T14:39:41;10.10;;;6.25;;
76409;SDS011;65238;42.662;23.280;2023-09-19T14:42:09;9.40;;;6.07;;
76409;SDS011;65238;42.662;23.280;2023-09-19T14:44:35;9.25;;;5.68;;
76409;SDS011;65238;42.662;23.280;2023-09-19T14:47:02;11.80;;;6.38;;
76409;SDS011;65238;42.662;23.280;2023-09-19T14:49:29;10.98;;;7.28;;
76409;SDS011;65238;42.662;23.280;2023-09-19T14:51:55;16.25;;;10.25;;
76409;SDS011;65238;42.662;23.280;2023-09-19T14:54:20;22.25;;;13.40;;
76409;SDS011;65238;42.662;23.280;2023-09-19T14:56:46;23.77;;;16.25;;
76409;SDS011;65238;42.662;23.280;2023-09-19T14:59:18;22.00;;;15.20;;
76409;SDS011;65238;42.662;23.280;2023-09-19T15:01:45;19.95;;;14.50;;
76409;SDS011;65238;42.662;23.280;2023-09-19T15:04:10;18.33;;;13.15;;
76409;SDS011;65238;42.662;23.280;2023-09-19T15:06:36;21.95;;;11.57;;
76409;SDS011;65238;42.662;23.280;2023-09-19T15:09:01;17.02;;;10.27;;
76409;SDS011;65238;42.662;23.280;2023-09-19T15:11:29;13.70;;;8.18;;
76409;SDS011;65238;42.662;23.280;2023-09-19T15:13:55;10.75;;;6.57;;
76409;SDS011;65238;42.662;23.280;2023-09-19T15:16:21;15.43;;;6.43;;
76409;SDS011;65238;42.662;23.280;2023-09-19T15:18:49;9.55;;;6.57;;
76409;SDS011;65238;42.662;23.280;2023-09-19T15:21:17;8.25;;;6.18;;
76409;SDS011;65238;42.662;23.280;2023-09-19T15:23:42;7.57;;;5.38;;
76409;SDS011;65238;42.662;23.280;2023-09-19T15:26:12;10.70;;;6.28;;
76409;SDS011;65238;42.662;23.280;2023-09-19T15:28:38;8.65;;;5.70;;
76409;SDS011;65238;42.662;23.280;2023-09-19T15:31:05;11.00;;;6.57;;
76409;SDS011;65238;42.662;23.280;2023-09-19T15:33:34;7.93;;;5.32;;